sensor_id;sensor_type;location;lat;lon;timestamp;pressure;altitude;pressure_sealevel;temperature
17716;BMP280;50159;49.426;11.182;2023-03-03T00:00:56;97772.88;;;1.06
17716;BMP280;50159;49.426;11.182;2023-03-03T00:03:25;97780.47;;;1.08
17716;BMP280;50159;49.426;11.182;2023-03-03T00:05:53;97778.69;;;1.10
17716;BMP280;50159;49.426;11.182;2023-03-03T00:08:21;97774.47;;;1.09
17716;BMP280;50159;49.426;11.182;2023-03-03T00:10:49;97775.56;;;1.03
17716;BMP280;50159;49.426;11.182;2023-03-03T00:13:20;97791.22;;;0.96
17716;BMP280;50159;49.426;11.182;2023-03-03T00:15:48;97779.44;;;0.92
17716;BMP280;50159;49.426;11.182;2023-03-03T00:18:35;97782.88;;;0.91
17716;BMP280;50159;49.426;11.182;2023-03-03T00:23:52;97778.00;;;0.85
17716;BMP280;50159;49.426;11.182;2023-03-03T00:26:32;97773.00;;;0.82
17716;BMP280;50159;49.426;11.182;2023-03-03T00:29:35;97772.88;;;0.85
17716;BMP280;50159;49.426;11.182;2023-03-03T00:32:25;97778.81;;;0.86
17716;BMP280;50159;49.426;11.182;2023-03-03T00:34:57;97778.13;;;0.82
17716;BMP280;50159;49.426;11.182;2023-03-03T00:37:33;97786.81;;;0.78
17716;BMP280;50159;49.426;11.182;2023-03-03T00:43:34;97787.88;;;0.73
17716;BMP280;50159;49.426;11.182;2023-03-03T00:46:02;97788.88;;;0.69
17716;BMP280;50159;49.426;11.182;2023-03-03T00:51:24;97797.66;;;0.62
17716;BMP280;50159;49.426;11.182;2023-03-03T00:53:52;97787.50;;;0.61
17716;BMP280;50159;49.426;11.182;2023-03-03T00:56:19;97791.06;;;0.57
17716;BMP280;50159;49.426;11.182;2023-03-03T00:58:46;97796.06;;;0.60
17716;BMP280;50159;49.426;11.182;2023-03-03T01:01:15;97796.06;;;0.60
17716;BMP280;50159;49.426;11.182;2023-03-03T01:03:42;97791.06;;;0.57
17716;BMP280;50159;49.426;11.182;2023-03-03T01:06:10;97788.69;;;0.52
17716;BMP280;50159;49.426;11.182;2023-03-03T01:08:38;97791.06;;;0.57
17716;BMP280;50159;49.426;11.182;2023-03-03T01:11:25;97789.00;;;0.66
17716;BMP280;50159;49.426;11.182;2023-03-03T01:13:55;97778.66;;;0.69
17716;BMP280;50159;49.426;11.182;2023-03-03T01:16:22;97789.78;;;0.68
17716;BMP280;50159;49.426;11.182;2023-03-03T01:18:48;97781.34;;;0.66
17716;BMP280;50159;49.426;11.182;2023-03-03T01:21:15;97788.00;;;0.70
17716;BMP280;50159;49.426;11.182;2023-03-03T01:23:42;97780.31;;;0.70
17716;BMP280;50159;49.426;11.182;2023-03-03T01:26:09;97776.03;;;0.70
17716;BMP280;50159;49.426;11.182;2023-03-03T01:28:36;97778.53;;;0.72
17716;BMP280;50159;49.426;11.182;2023-03-03T01:31:04;97776.56;;;0.78
17716;BMP280;50159;49.426;11.182;2023-03-03T01:33:33;97781.56;;;0.81
17716;BMP280;50159;49.426;11.182;2023-03-03T01:36:00;97789.13;;;0.84
17716;BMP280;50159;49.426;11.182;2023-03-03T01:38:27;97781.44;;;0.84
17716;BMP280;50159;49.426;11.182;2023-03-03T01:40:58;97779.00;;;0.81
17716;BMP280;50159;49.426;11.182;2023-03-03T01:43:31;97779.19;;;0.77
17716;BMP280;50159;49.426;11.182;2023-03-03T01:48:32;97781.16;;;0.70
17716;BMP280;50159;49.426;11.182;2023-03-03T01:51:05;97778.72;;;0.67
17716;BMP280;50159;49.426;11.182;2023-03-03T01:53:42;97776.22;;;0.66
17716;BMP280;50159;49.426;11.182;2023-03-03T01:56:10;97772.09;;;0.62
17716;BMP280;50159;49.426;11.182;2023-03-03T01:58:43;97777.16;;;0.64
17716;BMP280;50159;49.426;11.182;2023-03-03T02:01:16;97771.25;;;0.62
17716;BMP280;50159;49.426;11.182;2023-03-03T02:03:44;97774.59;;;0.64
17716;BMP280;50159;49.426;11.182;2023-03-03T02:06:15;97777.38;;;0.58
17716;BMP280;50159;49.426;11.182;2023-03-03T02:08:56;97778.53;;;0.51
17716;BMP280;50159;49.426;11.182;2023-03-03T02:11:27;97766.84;;;0.44
17716;BMP280;50159;49.426;11.182;2023-03-03T02:13:55;97764.53;;;0.38
17716;BMP280;50159;49.426;11.182;2023-03-03T02:16:22;97778.41;;;0.31
17716;BMP280;50159;49.426;11.182;2023-03-03T02:18:49;97778.53;;;0.28
17716;BMP280;50159;49.426;11.182;2023-03-03T02:21:20;97775.97;;;0.28
17716;BMP280;50159;49.426;11.182;2023-03-03T02:24:15;97776.88;;;0.27
17716;BMP280;50159;49.426;11.182;2023-03-03T02:26:45;97772.53;;;0.29
17716;BMP280;50159;49.426;11.182;2023-03-03T02:29:11;97774.38;;;0.26
17716;BMP280;50159;49.426;11.182;2023-03-03T02:31:38;97765.13;;;0.22
17716;BMP280;50159;49.426;11.182;2023-03-03T02:34:06;97773.88;;;0.17
17716;BMP280;50159;49.426;11.182;2023-03-03T02:36:36;97769.78;;;0.11
17716;BMP280;50159;49.426;11.182;2023-03-03T02:39:18;97783.66;;;0.06
17716;BMP280;50159;49.426;11.182;2023-03-03T02:41:52;97775.25;;;0.02
17716;BMP280;50159;49.426;11.182;2023-03-03T02:44:24;97783.00;;;-0.01
17716;BMP280;50159;49.426;11.182;2023-03-03T02:46:53;97779.75;;;-0.04
17716;BMP280;50159;49.426;11.182;2023-03-03T02:49:27;97781.63;;;-0.09
17716;BMP280;50159;49.426;11.182;2023-03-03T02:51:54;97776.66;;;-0.12
17716;BMP280;50159;49.426;11.182;2023-03-03T02:54:24;97773.34;;;-0.15
17716;BMP280;50159;49.426;11.182;2023-03-03T02:56:52;97775.91;;;-0.15
17716;BMP280;50159;49.426;11.182;2023-03-03T02:59:19;97778.41;;;-0.14
17716;BMP280;50159;49.426;11.182;2023-03-03T03:01:46;97779.34;;;-0.16
17716;BMP280;50159;49.426;11.182;2023-03-03T03:04:20;97778.63;;;-0.20
17716;BMP280;50159;49.426;11.182;2023-03-03T03:06:48;97790.56;;;-0.20
17716;BMP280;50159;49.426;11.182;2023-03-03T03:09:16;97787.28;;;-0.23
17716;BMP280;50159;49.426;11.182;2023-03-03T03:11:44;97790.75;;;-0.26
17716;BMP280;50159;49.426;11.182;2023-03-03T03:14:12;97781.25;;;-0.21
17716;BMP280;50159;49.426;11.182;2023-03-03T03:16:40;97777.97;;;-0.24
17716;BMP280;50159;49.426;11.182;2023-03-03T03:19:07;97790.81;;;-0.27
17716;BMP280;50159;49.426;11.182;2023-03-03T03:21:34;97784.81;;;-0.26
17716;BMP280;50159;49.426;11.182;2023-03-03T03:24:01;97775.50;;;-0.27
17716;BMP280;50159;49.426;11.182;2023-03-03T03:26:27;97774.81;;;-0.32
17716;BMP280;50159;49.426;11.182;2023-03-03T03:28:54;97785.16;;;-0.35
17716;BMP280;50159;49.426;11.182;2023-03-03T03:31:21;97790.47;;;-0.41
17716;BMP280;50159;49.426;11.182;2023-03-03T03:33:48;97791.41;;;-0.44
17716;BMP280;50159;49.426;11.182;2023-03-03T03:36:16;97793.28;;;-0.48
17716;BMP280;50159;49.426;11.182;2023-03-03T03:38:43;97794.97;;;-0.47
17716;BMP280;50159;49.426;11.182;2023-03-03T03:41:11;97797.56;;;-0.49
17716;BMP280;50159;49.426;11.182;2023-03-03T03:43:39;97789.84;;;-0.47
17716;BMP280;50159;49.426;11.182;2023-03-03T03:46:12;97786.53;;;-0.51
17716;BMP280;50159;49.426;11.182;2023-03-03T03:48:39;97795.09;;;-0.52
17716;BMP280;50159;49.426;11.182;2023-03-03T03:51:05;97798.66;;;-0.56
17716;BMP280;50159;49.426;11.182;2023-03-03T03:53:32;97803.81;;;-0.57
17716;BMP280;50159;49.426;11.182;2023-03-03T03:55:59;97800.41;;;-0.58
17716;BMP280;50159;49.426;11.182;2023-03-03T03:58:26;97798.88;;;-0.62
17716;BMP280;50159;49.426;11.182;2023-03-03T04:00:52;97800.59;;;-0.64
17716;BMP280;50159;49.426;11.182;2023-03-03T04:03:19;97808.31;;;-0.65
17716;BMP280;50159;49.426;11.182;2023-03-03T04:05:46;97807.50;;;-0.66
17716;BMP280;50159;49.426;11.182;2023-03-03T04:08:13;97798.25;;;-0.69
17716;BMP280;50159;49.426;11.182;2023-03-03T04:10:40;97800.88;;;-0.71
17716;BMP280;50159;49.426;11.182;2023-03-03T04:13:06;97796.72;;;-0.73
17716;BMP280;50159;49.426;11.182;2023-03-03T04:15:33;97798.50;;;-0.77
17716;BMP280;50159;49.426;11.182;2023-03-03T04:18:02;97804.41;;;-0.75
17716;BMP280;50159;49.426;11.182;2023-03-03T04:20:29;97809.59;;;-0.78
17716;BMP280;50159;49.426;11.182;2023-03-03T04:22:56;97791.22;;;-0.87
17716;BMP280;50159;49.426;11.182;2023-03-03T04:25:22;97787.91;;;-0.90
17716;BMP280;50159;49.426;11.182;2023-03-03T04:27:49;97794.72;;;-0.91
17716;BMP280;50159;49.426;11.182;2023-03-03T04:30:18;97803.97;;;-0.87
17716;BMP280;50159;49.426;11.182;2023-03-03T04:32:45;97803.94;;;-0.86
17716;BMP280;50159;49.426;11.182;2023-03-03T04:35:13;97806.47;;;-0.86
17716;BMP280;50159;49.426;11.182;2023-03-03T04:37:39;97809.94;;;-0.88
17716;BMP280;50159;49.426;11.182;2023-03-03T04:40:08;97816.94;;;-0.93
17716;BMP280;50159;49.426;11.182;2023-03-03T04:42:35;97805.16;;;-0.97
17716;BMP280;50159;49.426;11.182;2023-03-03T04:45:04;97807.81;;;-1.01
17716;BMP280;50159;49.426;11.182;2023-03-03T04:47:31;97808.75;;;-1.04
17716;BMP280;50159;49.426;11.182;2023-03-03T04:49:58;97813.88;;;-1.04
17716;BMP280;50159;49.426;11.182;2023-03-03T04:52:27;97812.16;;;-1.03
17716;BMP280;50159;49.426;11.182;2023-03-03T04:54:54;97801.22;;;-1.07
17716;BMP280;50159;49.426;11.182;2023-03-03T04:57:21;97812.31;;;-1.08
17716;BMP280;50159;49.426;11.182;2023-03-03T04:59:48;97805.63;;;-1.12
17716;BMP280;50159;49.426;11.182;2023-03-03T05:02:15;97806.53;;;-1.12
17716;BMP280;50159;49.426;11.182;2023-03-03T05:04:42;97808.19;;;-1.13
17716;BMP280;50159;49.426;11.182;2023-03-03T05:07:09;97815.78;;;-1.10
17716;BMP280;50159;49.426;11.182;2023-03-03T05:09:36;97815.59;;;-1.04
17716;BMP280;50159;49.426;11.182;2023-03-03T05:12:04;97821.41;;;-1.01
17716;BMP280;50159;49.426;11.182;2023-03-03T05:14:31;97823.28;;;-1.06
17716;BMP280;50159;49.426;11.182;2023-03-03T05:16:57;97814.19;;;-1.12
17716;BMP280;50159;49.426;11.182;2023-03-03T05:19:24;97828.66;;;-1.14
17716;BMP280;50159;49.426;11.182;2023-03-03T05:21:51;97824.44;;;-1.15
17716;BMP280;50159;49.426;11.182;2023-03-03T05:24:18;97825.34;;;-1.16
17716;BMP280;50159;49.426;11.182;2023-03-03T05:26:45;97824.56;;;-1.18
17716;BMP280;50159;49.426;11.182;2023-03-03T05:29:12;97820.28;;;-1.18
17716;BMP280;50159;49.426;11.182;2023-03-03T05:31:38;97819.56;;;-1.21
17716;BMP280;50159;49.426;11.182;2023-03-03T05:34:05;97818.06;;;-1.28
17716;BMP280;50159;49.426;11.182;2023-03-03T05:36:32;97832.84;;;-1.39
17716;BMP280;50159;49.426;11.182;2023-03-03T05:38:59;97833.03;;;-1.45
17716;BMP280;50159;49.426;11.182;2023-03-03T05:41:26;97831.41;;;-1.47
17716;BMP280;50159;49.426;11.182;2023-03-03T05:43:52;97829.75;;;-1.48
17716;BMP280;50159;49.426;11.182;2023-03-03T05:46:20;97832.34;;;-1.50
17716;BMP280;50159;49.426;11.182;2023-03-03T05:48:46;97848.50;;;-1.51
17716;BMP280;50159;49.426;11.182;2023-03-03T05:51:13;97842.53;;;-1.50
17716;BMP280;50159;49.426;11.182;2023-03-03T05:53:41;97844.13;;;-1.46
17716;BMP280;50159;49.426;11.182;2023-03-03T05:56:08;97848.44;;;-1.48
17716;BMP280;50159;49.426;11.182;2023-03-03T05:58:35;97849.38;;;-1.52
17716;BMP280;50159;49.426;11.182;2023-03-03T06:01:01;97852.75;;;-1.51
17716;BMP280;50159;49.426;11.182;2023-03-03T06:03:28;97845.22;;;-1.54
17716;BMP280;50159;49.426;11.182;2023-03-03T06:05:55;97857.22;;;-1.57
17716;BMP280;50159;49.426;11.182;2023-03-03T06:08:22;97871.44;;;-1.51
17716;BMP280;50159;49.426;11.182;2023-03-03T06:10:49;97864.53;;;-1.46
17716;BMP280;50159;49.426;11.182;2023-03-03T06:13:16;97882.13;;;-1.38
17716;BMP280;50159;49.426;11.182;2023-03-03T06:15:42;97882.19;;;-1.40
17716;BMP280;50159;49.426;11.182;2023-03-03T06:18:09;97871.16;;;-1.40
17716;BMP280;50159;49.426;11.182;2023-03-03T06:20:36;97872.84;;;-1.41
17716;BMP280;50159;49.426;11.182;2023-03-03T06:23:04;97879.59;;;-1.38
17716;BMP280;50159;49.426;11.182;2023-03-03T06:25:31;97875.84;;;-1.27
17716;BMP280;50159;49.426;11.182;2023-03-03T06:28:02;97881.38;;;-1.13
17716;BMP280;50159;49.426;11.182;2023-03-03T06:30:29;97885.47;;;-1.08
17716;BMP280;50159;49.426;11.182;2023-03-03T06:32:59;97893.50;;;-0.93
17716;BMP280;50159;49.426;11.182;2023-03-03T06:35:26;97893.13;;;-0.81
17716;BMP280;50159;49.426;11.182;2023-03-03T06:37:52;97901.25;;;-0.69
17716;BMP280;50159;49.426;11.182;2023-03-03T06:40:19;97909.47;;;-0.60
17716;BMP280;50159;49.426;11.182;2023-03-03T06:42:46;97909.25;;;-0.54
17716;BMP280;50159;49.426;11.182;2023-03-03T06:45:13;97910.69;;;-0.45
17716;BMP280;50159;49.426;11.182;2023-03-03T06:47:40;97917.41;;;-0.43
17716;BMP280;50159;49.426;11.182;2023-03-03T06:50:11;97912.13;;;-0.37
17716;BMP280;50159;49.426;11.182;2023-03-03T06:52:38;97912.63;;;-0.28
17716;BMP280;50159;49.426;11.182;2023-03-03T06:55:34;97914.06;;;-0.20
17716;BMP280;50159;49.426;11.182;2023-03-03T06:58:01;97913.59;;;-0.06
17716;BMP280;50159;49.426;11.182;2023-03-03T07:00:28;97912.16;;;0.11
17716;BMP280;50159;49.426;11.182;2023-03-03T07:03:01;97914.94;;;0.29
17716;BMP280;50159;49.426;11.182;2023-03-03T07:05:31;97910.56;;;0.55
17716;BMP280;50159;49.426;11.182;2023-03-03T07:07:59;97915.75;;;0.76
17716;BMP280;50159;49.426;11.182;2023-03-03T07:10:29;97919.09;;;0.99
17716;BMP280;50159;49.426;11.182;2023-03-03T07:15:46;97912.94;;;1.46
17716;BMP280;50159;49.426;11.182;2023-03-03T07:18:38;97920.63;;;1.67
17716;BMP280;50159;49.426;11.182;2023-03-03T07:21:16;97922.09;;;1.94
17716;BMP280;50159;49.426;11.182;2023-03-03T07:23:45;97922.13;;;2.13
17716;BMP280;50159;49.426;11.182;2023-03-03T07:26:34;97925.84;;;2.26
17716;BMP280;50159;49.426;11.182;2023-03-03T07:29:20;97929.78;;;2.33
17716;BMP280;50159;49.426;11.182;2023-03-03T07:31:49;97929.78;;;2.33
17716;BMP280;50159;49.426;11.182;2023-03-03T07:34:45;97939.16;;;2.34
17716;BMP280;50159;49.426;11.182;2023-03-03T07:37:21;97939.81;;;2.39
17716;BMP280;50159;49.426;11.182;2023-03-03T07:39:51;97942.25;;;2.42
17716;BMP280;50159;49.426;11.182;2023-03-03T07:42:38;97940.44;;;2.44
17716;BMP280;50159;49.426;11.182;2023-03-03T07:45:29;97946.88;;;2.53
17716;BMP280;50159;49.426;11.182;2023-03-03T07:48:25;97946.38;;;2.83
17716;BMP280;50159;49.426;11.182;2023-03-03T07:50:58;97944.94;;;3.14
17716;BMP280;50159;49.426;11.182;2023-03-03T07:53:30;97939.16;;;3.45
17716;BMP280;50159;49.426;11.182;2023-03-03T07:56:00;97934.38;;;3.73
17716;BMP280;50159;49.426;11.182;2023-03-03T07:58:37;97954.88;;;4.25
17716;BMP280;50159;49.426;11.182;2023-03-03T08:01:42;97955.66;;;4.92
17716;BMP280;50159;49.426;11.182;2023-03-03T08:04:17;97954.97;;;5.36
17716;BMP280;50159;49.426;11.182;2023-03-03T08:06:50;97961.19;;;5.79
17716;BMP280;50159;49.426;11.182;2023-03-03T08:11:58;97949.84;;;5.97
17716;BMP280;50159;49.426;11.182;2023-03-03T08:14:33;97953.16;;;5.99
17716;BMP280;50159;49.426;11.182;2023-03-03T08:17:00;97959.56;;;6.07
17716;BMP280;50159;49.426;11.182;2023-03-03T08:19:29;97963.22;;;6.18
17716;BMP280;50159;49.426;11.182;2023-03-03T08:22:10;97960.53;;;6.20
17716;BMP280;50159;49.426;11.182;2023-03-03T08:24:38;97958.06;;;6.18
17716;BMP280;50159;49.426;11.182;2023-03-03T08:27:04;97956.81;;;6.10
17716;BMP280;50159;49.426;11.182;2023-03-03T08:29:31;97952.38;;;6.12
17716;BMP280;50159;49.426;11.182;2023-03-03T08:31:58;97954.28;;;6.24
17716;BMP280;50159;49.426;11.182;2023-03-03T08:34:25;97964.19;;;6.31
17716;BMP280;50159;49.426;11.182;2023-03-03T08:36:51;97969.91;;;6.36
17716;BMP280;50159;49.426;11.182;2023-03-03T08:39:18;97968.28;;;6.48
17716;BMP280;50159;49.426;11.182;2023-03-03T08:41:45;97963.97;;;6.63
17716;BMP280;50159;49.426;11.182;2023-03-03T08:44:13;97975.75;;;6.82
17716;BMP280;50159;49.426;11.182;2023-03-03T08:46:40;97966.16;;;6.97
17716;BMP280;50159;49.426;11.182;2023-03-03T08:49:06;97968.50;;;7.02
17716;BMP280;50159;49.426;11.182;2023-03-03T08:51:33;97964.22;;;6.87
17716;BMP280;50159;49.426;11.182;2023-03-03T08:54:00;97968.16;;;6.65
17716;BMP280;50159;49.426;11.182;2023-03-03T08:56:27;97974.97;;;6.52
17716;BMP280;50159;49.426;11.182;2023-03-03T08:58:54;97979.53;;;6.47
17716;BMP280;50159;49.426;11.182;2023-03-03T09:01:30;97972.56;;;6.63
17716;BMP280;50159;49.426;11.182;2023-03-03T09:03:58;97958.69;;;6.93
17716;BMP280;50159;49.426;11.182;2023-03-03T09:06:25;97956.84;;;7.36
17716;BMP280;50159;49.426;11.182;2023-03-03T09:08:52;97953.38;;;7.63
17716;BMP280;50159;49.426;11.182;2023-03-03T09:11:27;97967.00;;;7.92
17716;BMP280;50159;49.426;11.182;2023-03-03T09:14:16;97956.56;;;8.20
17716;BMP280;50159;49.426;11.182;2023-03-03T09:16:51;97943.34;;;8.36
17716;BMP280;50159;49.426;11.182;2023-03-03T09:19:31;97950.25;;;8.62
17716;BMP280;50159;49.426;11.182;2023-03-03T09:22:24;97951.75;;;8.78
17716;BMP280;50159;49.426;11.182;2023-03-03T09:24:58;97948.84;;;8.82
17716;BMP280;50159;49.426;11.182;2023-03-03T09:27:33;97950.09;;;8.89
17716;BMP280;50159;49.426;11.182;2023-03-03T09:32:49;97948.63;;;9.22
17716;BMP280;50159;49.426;11.182;2023-03-03T09:35:37;97947.69;;;9.35
17716;BMP280;50159;49.426;11.182;2023-03-03T09:38:45;97954.50;;;9.48
17716;BMP280;50159;49.426;11.182;2023-03-03T09:50:27;97954.22;;;9.88
17716;BMP280;50159;49.426;11.182;2023-03-03T09:53:37;97967.03;;;10.14
17716;BMP280;50159;49.426;11.182;2023-03-03T10:05:16;97973.31;;;11.02
17716;BMP280;50159;49.426;11.182;2023-03-03T10:11:00;97966.84;;;11.29
17716;BMP280;50159;49.426;11.182;2023-03-03T10:13:48;97962.13;;;11.44
17716;BMP280;50159;49.426;11.182;2023-03-03T10:16:30;97960.84;;;11.71
17716;BMP280;50159;49.426;11.182;2023-03-03T10:30:27;97964.00;;;12.38
17716;BMP280;50159;49.426;11.182;2023-03-03T10:33:56;97954.88;;;12.63
17716;BMP280;50159;49.426;11.182;2023-03-03T10:36:50;97954.56;;;12.57
17716;BMP280;50159;49.426;11.182;2023-03-03T10:40:04;97949.44;;;12.66
17716;BMP280;50159;49.426;11.182;2023-03-03T10:45:34;97948.13;;;13.12
17716;BMP280;50159;49.426;11.182;2023-03-03T10:48:36;97941.47;;;13.19
17716;BMP280;50159;49.426;11.182;2023-03-03T10:51:54;97948.53;;;13.27
17716;BMP280;50159;49.426;11.182;2023-03-03T11:00:45;97941.78;;;13.64
17716;BMP280;50159;49.426;11.182;2023-03-03T11:06:04;97943.19;;;13.97
17716;BMP280;50159;49.426;11.182;2023-03-03T11:11:22;97937.00;;;13.98
17716;BMP280;50159;49.426;11.182;2023-03-03T11:14:20;97939.78;;;14.06
17716;BMP280;50159;49.426;11.182;2023-03-03T11:17:21;97944.47;;;14.11
17716;BMP280;50159;49.426;11.182;2023-03-03T11:19:59;97947.81;;;14.32
17716;BMP280;50159;49.426;11.182;2023-03-03T11:26:09;97942.06;;;14.66
17716;BMP280;50159;49.426;11.182;2023-03-03T11:37:45;97927.50;;;15.27
17716;BMP280;50159;49.426;11.182;2023-03-03T11:40:29;97923.25;;;15.26
17716;BMP280;50159;49.426;11.182;2023-03-03T11:43:16;97918.72;;;15.28
17716;BMP280;50159;49.426;11.182;2023-03-03T11:46:33;97915.56;;;15.51
17716;BMP280;50159;49.426;11.182;2023-03-03T11:49:17;97919.81;;;15.61
17716;BMP280;50159;49.426;11.182;2023-03-03T11:52:32;97913.53;;;15.45
17716;BMP280;50159;49.426;11.182;2023-03-03T11:55:16;97900.59;;;15.44
17716;BMP280;50159;49.426;11.182;2023-03-03T11:57:53;97904.25;;;15.50
17716;BMP280;50159;49.426;11.182;2023-03-03T12:00:45;97895.25;;;15.62
17716;BMP280;50159;49.426;11.182;2023-03-03T12:03:48;97898.53;;;15.64
17716;BMP280;50159;49.426;11.182;2023-03-03T12:07:03;97894.75;;;15.49
17716;BMP280;50159;49.426;11.182;2023-03-03T12:09:58;97886.69;;;15.60
17716;BMP280;50159;49.426;11.182;2023-03-03T12:15:52;97880.19;;;15.38
17716;BMP280;50159;49.426;11.182;2023-03-03T12:24:39;97868.34;;;15.60
17716;BMP280;50159;49.426;11.182;2023-03-03T12:33:31;97857.56;;;15.90
17716;BMP280;50159;49.426;11.182;2023-03-03T12:46:08;97839.91;;;16.60
17716;BMP280;50159;49.426;11.182;2023-03-03T12:48:44;97835.00;;;16.65
17716;BMP280;50159;49.426;11.182;2023-03-03T12:51:49;97838.88;;;16.95
17716;BMP280;50159;49.426;11.182;2023-03-03T12:55:01;97829.31;;;17.11
17716;BMP280;50159;49.426;11.182;2023-03-03T12:57:51;97830.63;;;17.15
17716;BMP280;50159;49.426;11.182;2023-03-03T13:00:37;97832.41;;;17.07
17716;BMP280;50159;49.426;11.182;2023-03-03T13:06:10;97838.88;;;16.95
17716;BMP280;50159;49.426;11.182;2023-03-03T13:09:18;97829.53;;;17.18
17716;BMP280;50159;49.426;11.182;2023-03-03T13:12:23;97829.16;;;17.46
17716;BMP280;50159;49.426;11.182;2023-03-03T13:15:03;97827.16;;;17.40
17716;BMP280;50159;49.426;11.182;2023-03-03T13:18:27;97817.63;;;17.06
17716;BMP280;50159;49.426;11.182;2023-03-03T13:21:36;97824.13;;;17.27
17716;BMP280;50159;49.426;11.182;2023-03-03T13:24:44;97829.41;;;17.60
17716;BMP280;50159;49.426;11.182;2023-03-03T13:27:19;97813.03;;;17.81
17716;BMP280;50159;49.426;11.182;2023-03-03T13:30:08;97817.88;;;17.94
17716;BMP280;50159;49.426;11.182;2023-03-03T13:32:56;97813.66;;;17.75
17716;BMP280;50159;49.426;11.182;2023-03-03T13:35:47;97824.84;;;17.70
17716;BMP280;50159;49.426;11.182;2023-03-03T13:38:23;97815.97;;;17.71
17716;BMP280;50159;49.426;11.182;2023-03-03T13:43:56;97812.28;;;17.96
17716;BMP280;50159;49.426;11.182;2023-03-03T13:46:40;97813.47;;;18.17
17716;BMP280;50159;49.426;11.182;2023-03-03T13:49:24;97804.94;;;18.16
17716;BMP280;50159;49.426;11.182;2023-03-03T13:52:14;97799.31;;;18.11
17716;BMP280;50159;49.426;11.182;2023-03-03T13:54:59;97802.59;;;18.13
17716;BMP280;50159;49.426;11.182;2023-03-03T13:57:43;97801.28;;;18.09
17716;BMP280;50159;49.426;11.182;2023-03-03T14:00:30;97787.81;;;18.19
17716;BMP280;50159;49.426;11.182;2023-03-03T14:06:17;97794.41;;;18.39
17716;BMP280;50159;49.426;11.182;2023-03-03T14:15:34;97797.53;;;22.12
17716;BMP280;50159;49.426;11.182;2023-03-03T14:18:23;97790.03;;;24.49
17716;BMP280;50159;49.426;11.182;2023-03-03T14:20:58;97788.81;;;26.52
17716;BMP280;50159;49.426;11.182;2023-03-03T14:24:10;97792.25;;;28.32
17716;BMP280;50159;49.426;11.182;2023-03-03T14:26:56;97785.63;;;28.63
17716;BMP280;50159;49.426;11.182;2023-03-03T14:32:01;97760.59;;;29.88
17716;BMP280;50159;49.426;11.182;2023-03-03T14:34:40;61792.09;;;-132.92
17716;BMP280;50159;49.426;11.182;2023-03-03T14:37:29;97783.38;;;31.23
17716;BMP280;50159;49.426;11.182;2023-03-03T14:40:21;97792.19;;;31.18
17716;BMP280;50159;49.426;11.182;2023-03-03T14:47:58;97781.19;;;30.76
17716;BMP280;50159;49.426;11.182;2023-03-03T14:50:49;97778.06;;;30.95
17716;BMP280;50159;49.426;11.182;2023-03-03T14:55:48;97777.91;;;31.50
17716;BMP280;50159;49.426;11.182;2023-03-03T14:58:37;97775.69;;;30.99
17716;BMP280;50159;49.426;11.182;2023-03-03T15:01:15;97782.47;;;30.58
17716;BMP280;50159;49.426;11.182;2023-03-03T15:04:22;97771.88;;;30.13
17716;BMP280;50159;49.426;11.182;2023-03-03T15:06:43;97776.59;;;29.38
17716;BMP280;50159;49.426;11.182;2023-03-03T15:12:21;97774.44;;;27.73
17716;BMP280;50159;49.426;11.182;2023-03-03T15:15:18;97767.94;;;27.28
17716;BMP280;50159;49.426;11.182;2023-03-03T15:17:58;97769.84;;;26.67
17716;BMP280;50159;49.426;11.182;2023-03-03T15:20:58;97760.78;;;25.45
17716;BMP280;50159;49.426;11.182;2023-03-03T15:23:56;97784.13;;;22.95
17716;BMP280;50159;49.426;11.182;2023-03-03T15:26:56;61792.09;;;-132.92
17716;BMP280;50159;49.426;11.182;2023-03-03T15:30:01;61792.09;;;-132.92
17716;BMP280;50159;49.426;11.182;2023-03-03T15:35:33;61792.09;;;-132.92
17716;BMP280;50159;49.426;11.182;2023-03-03T15:38:21;61792.09;;;-132.92
17716;BMP280;50159;49.426;11.182;2023-03-03T15:41:10;61792.09;;;-132.92
17716;BMP280;50159;49.426;11.182;2023-03-03T15:47:40;61792.09;;;-132.92
17716;BMP280;50159;49.426;11.182;2023-03-03T15:50:20;61792.09;;;-132.92
17716;BMP280;50159;49.426;11.182;2023-03-03T15:56:17;61792.09;;;-132.92
17716;BMP280;50159;49.426;11.182;2023-03-03T15:59:08;61792.09;;;-132.92
17716;BMP280;50159;49.426;11.182;2023-03-03T16:02:14;61792.09;;;-132.92
17716;BMP280;50159;49.426;11.182;2023-03-03T16:04:58;61792.09;;;-132.92
17716;BMP280;50159;49.426;11.182;2023-03-03T16:08:08;61792.09;;;-132.92
17716;BMP280;50159;49.426;11.182;2023-03-03T16:11:25;61792.09;;;-132.92
17716;BMP280;50159;49.426;11.182;2023-03-03T16:20:20;61792.09;;;-132.92
17716;BMP280;50159;49.426;11.182;2023-03-03T16:23:24;61792.09;;;-132.92
17716;BMP280;50159;49.426;11.182;2023-03-03T16:28:48;61792.09;;;-132.92
17716;BMP280;50159;49.426;11.182;2023-03-03T16:34:44;61792.09;;;-132.92
17716;BMP280;50159;49.426;11.182;2023-03-03T16:37:30;61792.09;;;-132.92
17716;BMP280;50159;49.426;11.182;2023-03-03T16:40:19;61792.09;;;-132.92
17716;BMP280;50159;49.426;11.182;2023-03-03T16:45:38;61792.09;;;-132.92
17716;BMP280;50159;49.426;11.182;2023-03-03T16:51:29;61792.09;;;-132.92
17716;BMP280;50159;49.426;11.182;2023-03-03T16:57:02;61792.09;;;-132.92
17716;BMP280;50159;49.426;11.182;2023-03-03T17:05:59;61792.09;;;-132.92
17716;BMP280;50159;49.426;11.182;2023-03-03T17:11:48;61792.09;;;-132.92
17716;BMP280;50159;49.426;11.182;2023-03-03T17:20:57;61792.09;;;-132.92
17716;BMP280;50159;49.426;11.182;2023-03-03T17:26:32;61792.09;;;-132.92
17716;BMP280;50159;49.426;11.182;2023-03-03T17:29:26;61792.09;;;-132.92
17716;BMP280;50159;49.426;11.182;2023-03-03T17:35:40;61792.09;;;-132.92
17716;BMP280;50159;49.426;11.182;2023-03-03T17:41:20;61792.09;;;-132.92
17716;BMP280;50159;49.426;11.182;2023-03-03T17:44:04;61792.09;;;-132.92
17716;BMP280;50159;49.426;11.182;2023-03-03T17:46:54;61792.09;;;-132.92
17716;BMP280;50159;49.426;11.182;2023-03-03T17:49:35;61792.09;;;-132.92
17716;BMP280;50159;49.426;11.182;2023-03-03T18:08:12;61792.09;;;-132.92
17716;BMP280;50159;49.426;11.182;2023-03-03T18:14:09;61792.09;;;-132.92
17716;BMP280;50159;49.426;11.182;2023-03-03T18:17:14;61792.09;;;-132.92
17716;BMP280;50159;49.426;11.182;2023-03-03T18:22:49;61792.09;;;-132.92
17716;BMP280;50159;49.426;11.182;2023-03-03T18:25:20;61792.09;;;-132.92